Time;durP1;ratioP1;P1;durP2;ratioP2;P2;SDS_P1;SDS_P2;PMS_P1;PMS_P2;Temp;Humidity;BMP_temperature;BMP_pressure;BME280_temperature;BME280_humidity;BME280_pressure;Samples;Min_cycle;Max_cycle;Signal;HPM_P1;HPM_P2
2021/10/11 00:00:07;;;;;;;2.63;0.80;;;;;;;;;;4948851;28;20099;-54
2021/10/11 00:02:32;;;;;;;2.85;1.10;;;;;;;;;;4950171;28;20031;-52
2021/10/11 00:04:59;;;;;;;2.90;1.10;;;;;;;;;;4949871;28;20058;-54
2021/10/11 00:07:25;;;;;;;4.60;1.00;;;;;;;;;;4949918;28;20034;-55
2021/10/11 00:09:51;;;;;;;3.08;0.80;;;;;;;;;;4951045;28;20554;-53
2021/10/11 00:12:21;;;;;;;2.72;1.02;;;;;;;;;;4957875;28;20055;-53
2021/10/11 00:14:48;;;;;;;3.45;1.20;;;;;;;;;;4956954;28;20408;-56
2021/10/11 00:17:14;;;;;;;2.83;1.15;;;;;;;;;;4951560;28;20131;-54
2021/10/11 00:19:40;;;;;;;1.73;0.70;;;;;;;;;;4949835;28;20323;-55
2021/10/11 00:22:05;;;;;;;2.13;0.80;;;;;;;;;;4951552;28;20090;-51
2021/10/11 00:24:31;;;;;;;3.78;1.15;;;;;;;;;;4948973;28;20097;-53
2021/10/11 00:26:57;;;;;;;3.20;1.05;;;;;;;;;;4950200;28;20050;-55
2021/10/11 00:29:23;;;;;;;2.65;0.82;;;;;;;;;;4950856;28;20093;-54
2021/10/11 00:31:49;;;;;;;2.80;0.93;;;;;;;;;;4934116;28;20039;-53
2021/10/11 00:34:15;;;;;;;2.08;0.80;;;;;;;;;;4952172;28;20074;-54
2021/10/11 00:36:40;;;;;;;3.05;0.82;;;;;;;;;;4951342;28;20885;-54
2021/10/11 00:39:06;;;;;;;2.78;0.82;;;;;;;;;;4951084;28;20034;-54
2021/10/11 00:41:32;;;;;;;3.60;1.00;;;;;;;;;;4951356;28;20054;-52
2021/10/11 00:44:02;;;;;;;2.47;0.80;;;;;;;;;;4951505;28;20252;-55
2021/10/11 00:46:28;;;;;;;2.70;0.75;;;;;;;;;;4951065;28;20047;-55
2021/10/11 00:48:53;;;;;;;3.28;0.90;;;;;;;;;;4951296;28;20576;-54
2021/10/11 00:51:20;;;;;;;2.40;0.70;;;;;;;;;;4949086;28;20043;-53
2021/10/11 00:53:46;;;;;;;4.88;1.80;;;;;;;;;;4953146;28;20061;-54
2021/10/11 00:56:12;;;;;;;2.58;0.90;;;;;;;;;;4951209;28;20039;-53
2021/10/11 00:58:38;;;;;;;2.40;0.80;;;;;;;;;;4950796;28;20043;-52
2021/10/11 01:01:03;;;;;;;2.45;0.80;;;;;;;;;;4952354;28;20536;-54
2021/10/11 01:03:29;;;;;;;2.78;0.90;;;;;;;;;;4950995;28;20066;-53
2021/10/11 01:05:55;;;;;;;2.58;0.90;;;;;;;;;;4959773;28;20507;-51
2021/10/11 01:08:21;;;;;;;2.83;1.00;;;;;;;;;;4951618;28;20063;-54
2021/10/11 01:10:47;;;;;;;4.55;1.15;;;;;;;;;;4960063;28;20062;-52
2021/10/11 01:13:13;;;;;;;2.50;1.00;;;;;;;;;;4950315;28;20051;-52
2021/10/11 01:15:39;;;;;;;1.90;0.68;;;;;;;;;;4949602;28;20042;-54
2021/10/11 01:18:05;;;;;;;3.42;1.10;;;;;;;;;;4960106;28;20035;-55
2021/10/11 01:20:31;;;;;;;2.70;0.90;;;;;;;;;;4949879;28;20062;-54
2021/10/11 01:22:57;;;;;;;6.07;1.10;;;;;;;;;;4950127;28;20550;-54
2021/10/11 01:25:23;;;;;;;6.18;1.00;;;;;;;;;;4952377;28;20492;-55
2021/10/11 01:27:49;;;;;;;3.35;0.90;;;;;;;;;;4951500;28;20085;-55
2021/10/11 01:30:15;;;;;;;1.98;0.60;;;;;;;;;;4950325;28;20049;-52
2021/10/11 01:32:42;;;;;;;2.47;0.80;;;;;;;;;;4950675;28;20492;-53
2021/10/11 01:35:08;;;;;;;2.42;0.98;;;;;;;;;;4950038;28;20046;-51
2021/10/11 01:37:34;;;;;;;2.60;0.90;;;;;;;;;;4950313;28;20035;-55
2021/10/11 01:40:01;;;;;;;2.28;0.70;;;;;;;;;;4950303;28;20043;-55
2021/10/11 01:42:26;;;;;;;3.33;1.05;;;;;;;;;;4951699;28;20071;-54
2021/10/11 01:44:52;;;;;;;2.85;0.80;;;;;;;;;;4952192;28;20042;-54
2021/10/11 01:47:18;;;;;;;2.72;0.98;;;;;;;;;;4950654;28;20049;-54
2021/10/11 01:49:44;;;;;;;2.55;0.88;;;;;;;;;;4950267;28;20111;-54
2021/10/11 01:52:10;;;;;;;2.60;0.80;;;;;;;;;;4951175;28;20042;-53
2021/10/11 01:54:36;;;;;;;2.67;0.90;;;;;;;;;;4952028;28;20069;-53
2021/10/11 01:57:02;;;;;;;3.15;0.90;;;;;;;;;;4949382;28;20091;-53
2021/10/11 01:59:27;;;;;;;2.70;1.00;;;;;;;;;;4950683;28;20051;-52
2021/10/11 02:01:53;;;;;;;2.45;0.85;;;;;;;;;;4951390;28;20067;-54
2021/10/11 02:04:19;;;;;;;1.98;0.80;;;;;;;;;;4950597;28;20053;-55
2021/10/11 02:06:45;;;;;;;2.58;0.90;;;;;;;;;;4951658;28;21031;-52
2021/10/11 02:09:11;;;;;;;2.13;0.70;;;;;;;;;;4950901;28;20268;-53
2021/10/11 02:11:36;;;;;;;3.15;1.02;;;;;;;;;;4950607;28;20043;-57
2021/10/11 02:14:02;;;;;;;2.97;0.90;;;;;;;;;;4950045;28;20946;-54
2021/10/11 02:16:28;;;;;;;2.45;0.80;;;;;;;;;;4950105;28;20053;-55
2021/10/11 02:18:54;;;;;;;2.80;0.90;;;;;;;;;;4950291;28;20070;-54
2021/10/11 02:21:19;;;;;;;3.40;1.10;;;;;;;;;;4949412;28;20556;-52
2021/10/11 02:23:45;;;;;;;3.53;1.27;;;;;;;;;;4950659;28;20063;-55
2021/10/11 02:26:11;;;;;;;3.03;1.10;;;;;;;;;;4950089;28;20039;-53
2021/10/11 02:28:37;;;;;;;4.22;1.27;;;;;;;;;;4950039;28;20049;-53
2021/10/11 02:31:03;;;;;;;2.63;0.98;;;;;;;;;;4950793;28;20036;-55
2021/10/11 02:33:29;;;;;;;3.17;1.23;;;;;;;;;;4950430;28;20050;-54
2021/10/11 02:35:55;;;;;;;3.25;1.05;;;;;;;;;;4951732;28;20574;-52
2021/10/11 02:38:20;;;;;;;3.13;1.08;;;;;;;;;;4949891;28;20125;-54
2021/10/11 02:40:46;;;;;;;3.78;1.17;;;;;;;;;;4950397;28;20111;-51
2021/10/11 02:43:12;;;;;;;2.83;1.10;;;;;;;;;;4952021;28;20046;-54
2021/10/11 02:45:38;;;;;;;2.88;1.10;;;;;;;;;;4950741;28;20043;-54
2021/10/11 02:48:04;;;;;;;3.15;1.13;;;;;;;;;;4953292;28;20382;-54
2021/10/11 02:50:30;;;;;;;2.72;1.00;;;;;;;;;;4950314;28;20043;-51
2021/10/11 02:52:56;;;;;;;3.20;1.25;;;;;;;;;;4952371;28;20031;-54
2021/10/11 02:55:22;;;;;;;2.28;0.82;;;;;;;;;;4959034;28;20134;-53
2021/10/11 02:57:48;;;;;;;2.40;0.85;;;;;;;;;;4952286;28;20042;-54
2021/10/11 03:00:14;;;;;;;3.53;1.00;;;;;;;;;;4951487;28;20043;-55
2021/10/11 03:02:39;;;;;;;2.83;1.00;;;;;;;;;;4950356;28;20042;-55
2021/10/11 03:05:05;;;;;;;2.90;0.90;;;;;;;;;;4951858;28;20039;-54
2021/10/11 03:07:31;;;;;;;2.95;1.10;;;;;;;;;;4950285;28;20389;-51
2021/10/11 03:09:57;;;;;;;2.95;1.02;;;;;;;;;;4952000;28;20094;-54
2021/10/11 03:12:23;;;;;;;4.22;1.25;;;;;;;;;;4950064;28;20061;-54
2021/10/11 03:14:50;;;;;;;4.18;1.38;;;;;;;;;;4950816;28;21829;-53
2021/10/11 03:17:15;;;;;;;6.28;1.00;;;;;;;;;;4949257;28;20038;-55
2021/10/11 03:19:41;;;;;;;2.65;0.90;;;;;;;;;;4949082;28;20043;-54
2021/10/11 03:22:07;;;;;;;3.50;1.20;;;;;;;;;;4951387;28;20074;-54
2021/10/11 03:24:33;;;;;;;2.40;0.98;;;;;;;;;;4949760;28;20043;-54
2021/10/11 03:26:58;;;;;;;3.60;1.00;;;;;;;;;;4951095;28;20035;-54
2021/10/11 03:29:24;;;;;;;3.88;1.27;;;;;;;;;;4950024;28;20043;-55
2021/10/11 03:31:50;;;;;;;3.10;1.10;;;;;;;;;;4950600;28;20043;-56
2021/10/11 03:34:16;;;;;;;3.28;1.10;;;;;;;;;;4949417;28;20054;-55
2021/10/11 03:36:42;;;;;;;4.13;1.27;;;;;;;;;;4963726;28;20039;-55
2021/10/11 03:39:08;;;;;;;5.32;1.23;;;;;;;;;;4950697;28;20074;-53
2021/10/11 03:41:34;;;;;;;2.83;0.88;;;;;;;;;;4948606;28;20380;-52
2021/10/11 03:44:05;;;;;;;4.15;1.35;;;;;;;;;;4949699;28;20050;-54
2021/10/11 03:46:31;;;;;;;3.20;1.27;;;;;;;;;;4950010;28;20043;-55
2021/10/11 03:48:57;;;;;;;2.78;0.95;;;;;;;;;;4950489;28;20118;-51
2021/10/11 03:51:23;;;;;;;2.38;1.00;;;;;;;;;;4948903;28;20049;-56
2021/10/11 03:53:49;;;;;;;3.05;1.13;;;;;;;;;;4952010;28;20075;-54
2021/10/11 03:56:15;;;;;;;5.18;1.10;;;;;;;;;;4950295;28;20042;-52
2021/10/11 03:58:41;;;;;;;3.25;1.08;;;;;;;;;;4949235;28;20054;-54
2021/10/11 04:01:07;;;;;;;3.00;1.05;;;;;;;;;;4950396;28;20442;-52
2021/10/11 04:03:33;;;;;;;3.30;1.00;;;;;;;;;;4951852;28;20142;-54
2021/10/11 04:05:59;;;;;;;4.03;1.50;;;;;;;;;;4953264;28;20039;-54
2021/10/11 04:08:34;;;;;;;2.95;1.10;;;;;;;;;;4952462;28;20091;-53
2021/10/11 04:11:10;;;;;;;4.20;1.45;;;;;;;;;;4954150;28;20073;-54
2021/10/11 04:13:37;;;;;;;2.45;0.90;;;;;;;;;;4952625;28;20051;-51
2021/10/11 04:16:03;;;;;;;4.32;1.23;;;;;;;;;;4954440;28;20101;-54
2021/10/11 04:18:29;;;;;;;7.57;1.20;;;;;;;;;;4953856;28;20102;-54
2021/10/11 04:20:55;;;;;;;2.97;1.20;;;;;;;;;;4954530;28;20051;-54
2021/10/11 04:23:20;;;;;;;3.40;1.20;;;;;;;;;;4953682;28;20046;-53
2021/10/11 04:25:47;;;;;;;2.97;1.08;;;;;;;;;;4953105;28;20042;-54
2021/10/11 04:28:13;;;;;;;3.83;1.10;;;;;;;;;;4952627;28;20062;-54
2021/10/11 04:30:38;;;;;;;3.05;1.13;;;;;;;;;;4953057;28;21325;-54
2021/10/11 04:33:04;;;;;;;3.42;1.27;;;;;;;;;;4953489;28;20039;-54
2021/10/11 04:35:30;;;;;;;3.90;1.30;;;;;;;;;;4949959;28;20066;-52
2021/10/11 04:37:56;;;;;;;3.88;1.38;;;;;;;;;;4952053;28;20035;-55
2021/10/11 04:40:22;;;;;;;4.60;1.17;;;;;;;;;;4949926;28;20156;-53
2021/10/11 04:42:48;;;;;;;4.28;1.40;;;;;;;;;;4952452;28;20039;-55
2021/10/11 04:45:13;;;;;;;2.83;0.93;;;;;;;;;;4949862;28;20070;-53
2021/10/11 04:47:39;;;;;;;3.10;1.15;;;;;;;;;;4950969;28;20138;-54
2021/10/11 04:50:06;;;;;;;4.93;1.10;;;;;;;;;;4950419;28;21720;-55
2021/10/11 04:52:32;;;;;;;3.55;1.20;;;;;;;;;;4951545;28;20053;-54
2021/10/11 04:54:58;;;;;;;3.83;1.10;;;;;;;;;;4952310;28;20046;-54
2021/10/11 04:57:23;;;;;;;2.75;1.05;;;;;;;;;;4952271;28;20082;-54
2021/10/11 04:59:49;;;;;;;2.92;0.95;;;;;;;;;;4951666;28;20438;-54
2021/10/11 05:02:15;;;;;;;3.03;1.15;;;;;;;;;;4952792;28;20047;-52
2021/10/11 05:04:41;;;;;;;5.13;1.58;;;;;;;;;;4950580;28;20066;-54
2021/10/11 05:07:07;;;;;;;3.83;1.15;;;;;;;;;;4950699;28;20146;-53
2021/10/11 05:09:32;;;;;;;3.28;1.10;;;;;;;;;;4949102;28;20433;-53
2021/10/11 05:11:58;;;;;;;3.20;1.23;;;;;;;;;;4951672;28;20082;-54
2021/10/11 05:14:24;;;;;;;3.42;1.00;;;;;;;;;;4951827;28;20448;-54
2021/10/11 05:16:52;;;;;;;6.60;1.35;;;;;;;;;;4960851;28;20046;-51
2021/10/11 05:19:24;;;;;;;2.55;0.88;;;;;;;;;;4952500;28;20138;-53
2021/10/11 05:21:50;;;;;;;3.63;1.00;;;;;;;;;;4954608;28;20138;-54
2021/10/11 05:24:17;;;;;;;3.35;1.00;;;;;;;;;;4951217;28;20039;-54
2021/10/11 05:26:43;;;;;;;2.60;0.95;;;;;;;;;;4950648;28;20043;-53
2021/10/11 05:29:09;;;;;;;2.95;1.10;;;;;;;;;;4951350;28;20043;-50
2021/10/11 05:31:35;;;;;;;3.00;0.85;;;;;;;;;;4952022;28;20058;-53
2021/10/11 05:34:01;;;;;;;3.05;1.17;;;;;;;;;;4950006;28;20122;-52
2021/10/11 05:36:28;;;;;;;3.90;1.25;;;;;;;;;;4965752;28;20054;-53
2021/10/11 05:38:53;;;;;;;2.40;0.90;;;;;;;;;;4953044;28;20056;-53
2021/10/11 05:41:19;;;;;;;3.08;1.10;;;;;;;;;;4951754;28;20038;-52
2021/10/11 05:43:45;;;;;;;3.05;1.25;;;;;;;;;;4950792;28;20058;-51
2021/10/11 05:46:11;;;;;;;3.92;0.98;;;;;;;;;;4951453;28;20129;-52
2021/10/11 05:48:37;;;;;;;1.85;0.73;;;;;;;;;;4951376;28;20826;-53
2021/10/11 05:51:03;;;;;;;7.60;1.13;;;;;;;;;;4951288;28;20058;-55
2021/10/11 05:53:29;;;;;;;3.78;1.40;;;;;;;;;;4951110;28;20047;-53
2021/10/11 05:55:54;;;;;;;3.45;1.20;;;;;;;;;;4951917;28;20047;-51
2021/10/11 05:58:20;;;;;;;3.63;0.82;;;;;;;;;;4950932;28;20630;-51
2021/10/11 06:00:46;;;;;;;3.25;1.17;;;;;;;;;;4952813;28;20125;-52
2021/10/11 06:03:12;;;;;;;4.82;1.02;;;;;;;;;;4951441;28;20467;-54
2021/10/11 06:05:38;;;;;;;6.13;1.02;;;;;;;;;;4951030;28;20053;-52
2021/10/11 06:08:03;;;;;;;3.13;1.10;;;;;;;;;;4950635;28;20048;-53
2021/10/11 06:10:29;;;;;;;2.75;1.00;;;;;;;;;;4952468;28;20124;-54
2021/10/11 06:12:55;;;;;;;4.30;0.98;;;;;;;;;;4965559;28;20045;-53
2021/10/11 06:15:21;;;;;;;3.35;1.00;;;;;;;;;;4950385;28;20038;-54
2021/10/11 06:17:47;;;;;;;3.55;1.10;;;;;;;;;;4951099;28;20611;-55
2021/10/11 06:20:13;;;;;;;3.30;1.20;;;;;;;;;;4951274;28;20415;-53
2021/10/11 06:22:39;;;;;;;4.95;1.20;;;;;;;;;;4948813;28;20488;-55
2021/10/11 06:25:05;;;;;;;3.10;1.10;;;;;;;;;;4965064;28;20058;-52
2021/10/11 06:27:31;;;;;;;3.20;1.02;;;;;;;;;;4950226;28;20047;-53
2021/10/11 06:29:57;;;;;;;3.05;1.00;;;;;;;;;;4952657;28;20500;-51
2021/10/11 06:32:23;;;;;;;3.28;1.30;;;;;;;;;;4949911;28;20051;-51
2021/10/11 06:34:49;;;;;;;2.72;0.90;;;;;;;;;;4951189;28;20047;-53
2021/10/11 06:37:15;;;;;;;4.38;1.23;;;;;;;;;;4951594;28;20069;-53
2021/10/11 06:39:41;;;;;;;4.15;1.00;;;;;;;;;;4949817;28;20051;-51
2021/10/11 06:42:07;;;;;;;2.35;0.88;;;;;;;;;;4952981;28;20564;-52
2021/10/11 06:44:33;;;;;;;2.15;0.75;;;;;;;;;;4951662;28;20039;-52
2021/10/11 06:46:58;;;;;;;5.40;2.55;;;;;;;;;;4952156;28;20045;-53
2021/10/11 06:49:24;;;;;;;3.03;0.98;;;;;;;;;;4950437;28;20122;-54
2021/10/11 06:51:50;;;;;;;2.58;0.95;;;;;;;;;;4952461;28;20094;-53
2021/10/11 06:54:16;;;;;;;2.90;1.02;;;;;;;;;;4951528;28;20500;-54
2021/10/11 06:56:42;;;;;;;2.53;0.95;;;;;;;;;;4950776;28;20765;-53
2021/10/11 06:59:08;;;;;;;2.15;0.75;;;;;;;;;;4951650;28;20782;-51
2021/10/11 07:01:33;;;;;;;2.30;0.80;;;;;;;;;;4950018;28;20496;-52
2021/10/11 07:04:00;;;;;;;3.95;1.20;;;;;;;;;;4950800;28;20039;-51
2021/10/11 07:06:26;;;;;;;2.67;0.98;;;;;;;;;;4950787;28;20070;-53
2021/10/11 07:08:52;;;;;;;3.75;1.27;;;;;;;;;;4951949;28;20142;-51
2021/10/11 07:11:18;;;;;;;3.40;1.10;;;;;;;;;;4950479;28;20039;-52
2021/10/11 07:13:44;;;;;;;2.30;0.95;;;;;;;;;;4949285;28;20097;-52
2021/10/11 07:16:10;;;;;;;5.43;1.10;;;;;;;;;;4950001;28;20053;-52
2021/10/11 07:18:38;;;;;;;3.33;0.77;;;;;;;;;;4950212;28;20042;-52
2021/10/11 07:21:05;;;;;;;3.45;0.90;;;;;;;;;;4951326;28;20403;-54
2021/10/11 07:23:31;;;;;;;2.70;1.05;;;;;;;;;;4948813;28;20043;-53
2021/10/11 07:25:58;;;;;;;3.58;1.10;;;;;;;;;;4949697;28;20068;-53
2021/10/11 07:28:23;;;;;;;3.17;1.20;;;;;;;;;;4949004;28;20097;-52
2021/10/11 07:30:50;;;;;;;4.05;1.02;;;;;;;;;;4950764;28;20034;-53
2021/10/11 07:33:16;;;;;;;4.72;1.00;;;;;;;;;;4958561;28;20047;-52
2021/10/11 07:35:42;;;;;;;3.15;1.20;;;;;;;;;;4951491;28;20978;-54
2021/10/11 07:38:08;;;;;;;2.83;0.90;;;;;;;;;;4949799;28;20530;-53
2021/10/11 07:40:34;;;;;;;4.05;1.00;;;;;;;;;;4950661;28;20034;-52
2021/10/11 07:43:00;;;;;;;2.70;1.00;;;;;;;;;;4950124;28;20069;-52
2021/10/11 07:45:25;;;;;;;2.53;1.05;;;;;;;;;;4949980;28;20076;-52
2021/10/11 07:47:51;;;;;;;4.05;1.10;;;;;;;;;;4950453;28;20041;-54
2021/10/11 07:50:17;;;;;;;4.55;1.13;;;;;;;;;;4950466;28;20043;-53
2021/10/11 07:52:43;;;;;;;2.22;0.73;;;;;;;;;;4950024;28;20247;-53
2021/10/11 07:55:09;;;;;;;5.93;1.40;;;;;;;;;;4949617;28;20347;-51
2021/10/11 07:57:35;;;;;;;3.50;1.10;;;;;;;;;;4948953;28;20042;-54
2021/10/11 08:00:04;;;;;;;3.40;1.27;;;;;;;;;;4949776;28;20091;-51
2021/10/11 08:02:31;;;;;;;3.83;1.13;;;;;;;;;;4948297;28;20038;-52
2021/10/11 08:04:57;;;;;;;4.78;1.42;;;;;;;;;;4949531;28;21058;-51
2021/10/11 08:07:22;;;;;;;2.92;1.10;;;;;;;;;;4949444;28;20034;-52
2021/10/11 08:09:48;;;;;;;3.97;1.35;;;;;;;;;;4948848;28;20053;-50
2021/10/11 08:12:14;;;;;;;4.07;1.23;;;;;;;;;;4950443;28;20514;-50
2021/10/11 08:14:40;;;;;;;6.40;1.65;;;;;;;;;;4949347;28;20757;-51
2021/10/11 08:17:06;;;;;;;3.63;1.17;;;;;;;;;;4950063;28;20035;-52
2021/10/11 08:19:32;;;;;;;3.00;1.20;;;;;;;;;;4949335;28;20480;-53
2021/10/11 08:21:58;;;;;;;3.95;1.10;;;;;;;;;;4950332;28;21737;-52
2021/10/11 08:24:23;;;;;;;3.10;1.10;;;;;;;;;;4948165;28;20157;-50
2021/10/11 08:26:49;;;;;;;3.53;1.40;;;;;;;;;;4949423;28;20074;-50
2021/10/11 08:29:15;;;;;;;3.20;1.20;;;;;;;;;;4948827;28;20496;-53
2021/10/11 08:31:41;;;;;;;3.95;1.35;;;;;;;;;;4948019;28;20475;-51
2021/10/11 08:34:07;;;;;;;3.08;1.25;;;;;;;;;;4948990;28;20048;-51
2021/10/11 08:36:32;;;;;;;3.10;1.20;;;;;;;;;;4949872;28;20050;-54
2021/10/11 08:38:58;;;;;;;3.20;1.15;;;;;;;;;;4951550;28;20926;-50
2021/10/11 08:41:25;;;;;;;3.72;1.33;;;;;;;;;;4949390;28;20032;-54
2021/10/11 08:43:51;;;;;;;3.03;1.10;;;;;;;;;;4950228;28;20038;-54
2021/10/11 08:46:17;;;;;;;3.60;1.27;;;;;;;;;;4949594;28;20404;-51
2021/10/11 08:48:43;;;;;;;3.22;1.38;;;;;;;;;;4968731;28;20053;-51
2021/10/11 08:51:09;;;;;;;3.28;0.90;;;;;;;;;;4972972;28;20054;-54
2021/10/11 08:53:35;;;;;;;3.33;1.02;;;;;;;;;;4973355;28;20345;-51
2021/10/11 08:56:01;;;;;;;3.33;0.95;;;;;;;;;;4973517;28;20177;-54
2021/10/11 08:58:27;;;;;;;3.33;1.08;;;;;;;;;;4975641;28;21095;-52
2021/10/11 09:01:03;;;;;;;3.97;1.30;;;;;;;;;;4973506;28;20043;-51
2021/10/11 09:03:29;;;;;;;2.78;0.90;;;;;;;;;;4970871;28;20155;-52
2021/10/11 09:06:02;;;;;;;3.92;1.02;;;;;;;;;;4958510;28;20034;-53
2021/10/11 09:08:29;;;;;;;3.53;1.02;;;;;;;;;;4952254;28;20055;-53
2021/10/11 09:10:56;;;;;;;1.85;0.65;;;;;;;;;;4954432;28;20043;-50
2021/10/11 09:13:46;;;;;;;3.15;1.10;;;;;;;;;;4952761;28;20088;-51
2021/10/11 09:16:29;;;;;;;2.17;0.70;;;;;;;;;;4953797;28;20043;-52
2021/10/11 09:18:58;;;;;;;3.10;0.95;;;;;;;;;;4959952;28;20042;-51
2021/10/11 09:21:31;;;;;;;2.40;0.90;;;;;;;;;;4953027;28;20054;-52
2021/10/11 09:24:06;;;;;;;2.03;0.70;;;;;;;;;;4956005;28;20043;-54
2021/10/11 09:26:42;;;;;;;2.60;0.73;;;;;;;;;;4951008;28;20035;-52
2021/10/11 09:29:08;;;;;;;1.83;0.70;;;;;;;;;;4951556;28;20035;-54
2021/10/11 09:31:35;;;;;;;1.88;0.70;;;;;;;;;;4951701;28;20042;-51
2021/10/11 09:34:01;;;;;;;2.55;0.85;;;;;;;;;;4951225;28;20055;-51
2021/10/11 09:36:29;;;;;;;2.58;0.80;;;;;;;;;;4951817;28;20100;-54
2021/10/11 09:39:01;;;;;;;3.05;0.93;;;;;;;;;;4952215;28;20046;-53
2021/10/11 09:41:27;;;;;;;2.13;0.70;;;;;;;;;;4952194;28;20086;-53
2021/10/11 09:43:53;;;;;;;1.70;0.60;;;;;;;;;;4952567;28;20752;-51
2021/10/11 09:46:21;;;;;;;2.83;0.85;;;;;;;;;;4951241;28;20038;-50
2021/10/11 09:48:54;;;;;;;2.97;0.60;;;;;;;;;;4951644;28;20051;-54
2021/10/11 09:51:24;;;;;;;2.67;0.80;;;;;;;;;;4950289;28;20053;-53
2021/10/11 09:53:51;;;;;;;1.70;0.55;;;;;;;;;;4951448;28;20058;-54
2021/10/11 09:56:17;;;;;;;1.50;0.68;;;;;;;;;;4952046;28;20473;-50
2021/10/11 09:58:42;;;;;;;2.35;0.70;;;;;;;;;;4984822;28;20125;-52
2021/10/11 10:01:09;;;;;;;1.98;0.70;;;;;;;;;;4971030;28;20067;-51
2021/10/11 10:03:36;;;;;;;2.25;0.80;;;;;;;;;;4969904;28;20054;-52
2021/10/11 10:06:05;;;;;;;3.10;0.80;;;;;;;;;;4970706;28;20046;-51
2021/10/11 10:08:31;;;;;;;2.08;0.70;;;;;;;;;;4970345;28;20058;-50
2021/10/11 10:10:58;;;;;;;2.35;0.80;;;;;;;;;;4970878;28;20045;-53
2021/10/11 10:13:26;;;;;;;1.73;0.68;;;;;;;;;;4952028;28;20647;-51
2021/10/11 10:15:55;;;;;;;2.05;0.73;;;;;;;;;;4951570;28;20051;-52
2021/10/11 10:18:22;;;;;;;2.13;0.70;;;;;;;;;;4949170;28;20037;-53
2021/10/11 10:21:14;;;;;;;2.13;0.70;;;;;;;;;;4951876;28;20850;-50
2021/10/11 10:23:42;;;;;;;2.28;0.75;;;;;;;;;;4951048;28;20499;-50
2021/10/11 10:26:09;;;;;;;1.80;0.60;;;;;;;;;;4951430;28;20059;-50
2021/10/11 10:28:46;;;;;;;2.03;0.70;;;;;;;;;;4949050;28;20082;-50
2021/10/11 10:31:25;;;;;;;1.83;0.65;;;;;;;;;;4950830;28;20047;-51
2021/10/11 10:33:50;;;;;;;1.85;0.70;;;;;;;;;;4957619;28;20058;-50
2021/10/11 10:36:21;;;;;;;1.75;0.70;;;;;;;;;;4964998;28;20043;-49
2021/10/11 10:39:05;;;;;;;1.27;0.50;;;;;;;;;;4968367;28;20042;-50
2021/10/11 10:41:31;;;;;;;1.80;0.57;;;;;;;;;;4966748;28;20089;-53
2021/10/11 10:44:08;;;;;;;1.98;0.75;;;;;;;;;;4950880;28;20670;-53
2021/10/11 10:46:33;;;;;;;1.35;0.52;;;;;;;;;;4950852;28;20989;-50
2021/10/11 10:48:59;;;;;;;1.60;0.60;;;;;;;;;;4949900;28;20456;-50
2021/10/11 10:51:25;;;;;;;3.00;0.52;;;;;;;;;;4950928;28;20035;-52
2021/10/11 10:53:52;;;;;;;1.42;0.50;;;;;;;;;;4963275;28;20065;-50
2021/10/11 10:56:18;;;;;;;1.58;0.52;;;;;;;;;;4969527;28;20039;-53
2021/10/11 10:58:44;;;;;;;1.60;0.60;;;;;;;;;;4958334;28;20413;-53
2021/10/11 11:01:10;;;;;;;2.75;0.60;;;;;;;;;;4950364;28;20038;-53
2021/10/11 11:03:36;;;;;;;1.48;0.60;;;;;;;;;;4950277;28;20047;-52
2021/10/11 11:06:05;;;;;;;1.42;0.50;;;;;;;;;;4951239;28;20054;-52
2021/10/11 11:08:31;;;;;;;1.20;0.45;;;;;;;;;;4948598;28;20051;-53
2021/10/11 11:11:00;;;;;;;1.65;0.55;;;;;;;;;;4949933;28;21762;-50
2021/10/11 11:13:26;;;;;;;1.67;0.60;;;;;;;;;;4950571;28;20079;-50
2021/10/11 11:15:52;;;;;;;1.25;0.50;;;;;;;;;;4950335;28;20182;-49
2021/10/11 11:18:25;;;;;;;2.03;0.60;;;;;;;;;;4963956;28;20165;-50
2021/10/11 11:20:52;;;;;;;0.82;0.38;;;;;;;;;;4950363;28;20043;-52
2021/10/11 11:23:23;;;;;;;1.65;0.60;;;;;;;;;;4949545;28;20035;-51
2021/10/11 11:25:50;;;;;;;2.60;0.75;;;;;;;;;;4957853;28;20094;-50
2021/10/11 11:28:22;;;;;;;1.30;0.47;;;;;;;;;;4950013;28;20146;-53
2021/10/11 11:30:52;;;;;;;1.02;0.40;;;;;;;;;;4948984;28;20051;-52
2021/10/11 11:33:25;;;;;;;0.82;0.43;;;;;;;;;;4949657;28;20039;-50
2021/10/11 11:35:51;;;;;;;;;;;;;;;;;;4950126;28;20047;-50
2021/10/11 11:38:19;;;;;;;0.68;0.30;;;;;;;;;;4949850;28;19929;-51
2021/10/11 11:40:46;;;;;;;1.90;0.60;;;;;;;;;;4968479;28;20038;-51
2021/10/11 11:43:12;;;;;;;1.42;0.40;;;;;;;;;;4969853;28;20050;-53
2021/10/11 11:45:45;;;;;;;2.30;0.70;;;;;;;;;;4982801;28;22978;-51
2021/10/11 11:48:11;;;;;;;1.60;0.50;;;;;;;;;;4965914;28;20046;-51
2021/10/11 11:50:37;;;;;;;5.18;0.60;;;;;;;;;;4969378;28;20045;-53
2021/10/11 11:53:05;;;;;;;2.03;0.60;;;;;;;;;;4968027;28;20081;-50
2021/10/11 11:55:32;;;;;;;1.52;0.63;;;;;;;;;;4968424;28;20065;-52
2021/10/11 11:57:58;;;;;;;2.03;0.52;;;;;;;;;;4968720;28;20511;-50
2021/10/11 12:00:25;;;;;;;1.10;0.40;;;;;;;;;;4968987;28;20125;-53
2021/10/11 12:02:52;;;;;;;2.13;0.60;;;;;;;;;;4969591;28;20039;-53
2021/10/11 12:05:18;;;;;;;1.83;0.60;;;;;;;;;;4969141;28;20890;-52
2021/10/11 12:07:45;;;;;;;1.55;0.57;;;;;;;;;;4969930;28;20050;-50
2021/10/11 12:10:16;;;;;;;1.55;0.60;;;;;;;;;;4983711;28;20458;-50
2021/10/11 12:12:41;;;;;;;1.42;0.52;;;;;;;;;;4958823;28;20050;-50
2021/10/11 12:15:16;;;;;;;1.05;0.45;;;;;;;;;;4951162;28;20055;-52
2021/10/11 12:17:42;;;;;;;2.03;0.73;;;;;;;;;;4950876;28;20043;-52
2021/10/11 12:20:08;;;;;;;3.17;0.63;;;;;;;;;;4949263;28;20039;-52
2021/10/11 12:22:33;;;;;;;1.20;0.52;;;;;;;;;;4953367;28;20039;-52
2021/10/11 12:25:00;;;;;;;0.60;0.40;;;;;;;;;;4955742;28;20047;-51
2021/10/11 12:27:27;;;;;;;1.10;0.50;;;;;;;;;;4954915;28;20042;-52
2021/10/11 12:29:54;;;;;;;1.00;0.40;;;;;;;;;;4954556;28;20039;-52
2021/10/11 12:32:27;;;;;;;2.45;0.50;;;;;;;;;;4953818;28;20143;-52
2021/10/11 12:34:53;;;;;;;3.13;0.70;;;;;;;;;;4953971;28;20129;-51
2021/10/11 12:37:20;;;;;;;1.50;0.40;;;;;;;;;;4953663;28;20165;-52
2021/10/11 12:39:46;;;;;;;1.20;0.50;;;;;;;;;;4952485;28;20042;-50
2021/10/11 12:42:23;;;;;;;1.50;0.60;;;;;;;;;;4953900;28;20110;-50
2021/10/11 12:44:54;;;;;;;1.50;0.50;;;;;;;;;;4966757;28;20162;-50
2021/10/11 12:47:23;;;;;;;1.25;0.45;;;;;;;;;;4975605;28;20037;-51
2021/10/11 12:49:52;;;;;;;2.50;0.85;;;;;;;;;;4973133;28;20085;-51
2021/10/11 12:52:18;;;;;;;1.83;0.60;;;;;;;;;;4973101;28;20038;-53
2021/10/11 12:54:44;;;;;;;1.52;0.60;;;;;;;;;;4972380;28;20459;-52
2021/10/11 12:57:10;;;;;;;4.60;0.90;;;;;;;;;;4974109;28;20039;-51
2021/10/11 12:59:37;;;;;;;1.70;0.70;;;;;;;;;;4973882;28;20069;-50
2021/10/11 13:02:02;;;;;;;2.17;0.80;;;;;;;;;;4972601;28;20034;-53
2021/10/11 13:04:28;;;;;;;3.53;0.73;;;;;;;;;;4963116;28;20042;-50
2021/10/11 13:06:54;;;;;;;2.08;0.80;;;;;;;;;;4954450;28;20043;-50
2021/10/11 13:09:21;;;;;;;2.13;0.85;;;;;;;;;;4952752;28;20672;-50
2021/10/11 13:11:47;;;;;;;2.95;0.93;;;;;;;;;;4952777;28;20047;-51
2021/10/11 13:14:13;;;;;;;2.97;0.85;;;;;;;;;;4955929;28;20130;-50
2021/10/11 13:16:39;;;;;;;2.30;0.80;;;;;;;;;;4954718;28;20171;-51
2021/10/11 13:19:05;;;;;;;2.65;0.68;;;;;;;;;;4956042;28;20042;-50
2021/10/11 13:21:31;;;;;;;1.98;0.70;;;;;;;;;;4952426;28;20098;-50
2021/10/11 13:23:57;;;;;;;2.28;0.70;;;;;;;;;;4954322;28;20047;-53
2021/10/11 13:26:23;;;;;;;2.67;0.88;;;;;;;;;;4951810;28;20046;-50
2021/10/11 13:43:11;;;;;;;1.25;0.57;;;;;;;;;;4955365;28;20206;-50
2021/10/11 14:29:30;;;;;;;1.05;0.47;;;;;;;;;;4951095;28;20101;-50
2021/10/11 15:59:32;;;;;;;1.15;0.50;;;;;;;;;;4953054;28;20721;-53
2021/10/11 16:04:24;;;;;;;2.90;0.50;;;;;;;;;;4955182;28;20050;-54
2021/10/11 16:06:50;;;;;;;0.98;0.43;;;;;;;;;;4952687;28;20105;-53
2021/10/11 16:09:16;;;;;;;1.25;0.50;;;;;;;;;;4954035;28;20103;-54
2021/10/11 16:11:43;;;;;;;1.50;0.50;;;;;;;;;;4953585;28;20367;-54
2021/10/11 16:14:09;;;;;;;1.00;0.40;;;;;;;;;;4956145;28;20524;-54
2021/10/11 16:16:35;;;;;;;1.60;0.55;;;;;;;;;;4952536;28;20590;-54
2021/10/11 16:19:01;;;;;;;1.48;0.40;;;;;;;;;;4954804;28;20137;-53
2021/10/11 16:21:27;;;;;;;1.60;0.50;;;;;;;;;;4955713;28;20035;-52
2021/10/11 16:23:53;;;;;;;1.20;0.45;;;;;;;;;;4954631;28;20089;-51
2021/10/11 16:26:19;;;;;;;1.67;0.50;;;;;;;;;;4954709;28;20081;-53
2021/10/11 16:28:45;;;;;;;1.70;0.50;;;;;;;;;;4954782;28;20086;-53
2021/10/11 16:31:12;;;;;;;1.55;0.47;;;;;;;;;;4954185;28;20103;-51
2021/10/11 16:33:38;;;;;;;8.65;0.60;;;;;;;;;;4954400;28;20051;-54
2021/10/11 16:36:08;;;;;;;1.38;0.60;;;;;;;;;;4953732;28;20121;-54
2021/10/11 16:38:34;;;;;;;1.98;0.50;;;;;;;;;;4968593;28;20471;-52
2021/10/11 16:41:01;;;;;;;2.17;0.60;;;;;;;;;;4955617;28;20210;-54
2021/10/11 16:43:27;;;;;;;1.80;0.50;;;;;;;;;;4955045;28;20049;-54
2021/10/11 16:45:53;;;;;;;1.73;0.60;;;;;;;;;;4955508;28;20043;-54
2021/10/11 16:48:19;;;;;;;0.93;0.40;;;;;;;;;;4957904;28;20042;-55
2021/10/11 16:50:45;;;;;;;1.02;0.40;;;;;;;;;;4954351;28;20050;-55
2021/10/11 16:53:11;;;;;;;1.08;0.50;;;;;;;;;;4953439;28;20752;-53
2021/10/11 16:55:37;;;;;;;0.73;0.40;;;;;;;;;;4955464;28;20047;-53
2021/10/11 16:58:03;;;;;;;1.98;0.60;;;;;;;;;;4973107;28;20034;-55
2021/10/11 17:00:28;;;;;;;1.15;0.40;;;;;;;;;;4971765;28;20503;-55
2021/10/11 17:02:54;;;;;;;1.20;0.57;;;;;;;;;;4973475;28;20050;-54
2021/10/11 17:05:21;;;;;;;1.05;0.47;;;;;;;;;;4974282;28;20161;-54
2021/10/11 17:07:50;;;;;;;1.63;0.50;;;;;;;;;;4971651;28;20101;-56